Time;durP1;ratioP1;P1;durP2;ratioP2;P2;SDS_P1;SDS_P2;PMS_P1;PMS_P2;Temp;Humidity;BMP_temperature;BMP_pressure;BME280_temperature;BME280_humidity;BME280_pressure;Samples;Min_cycle;Max_cycle;Signal;HPM_P1;HPM_P2
2022/09/30 00:01:17;;;;;;;10.25;7.47;;;8.50;99.90;;;;;;4933565;29;20056;-68
2022/09/30 00:03:42;;;;;;;7.85;6.60;;;8.50;99.90;;;;;;4917276;29;20166;-68
2022/09/30 00:06:08;;;;;;;11.05;6.97;;;8.50;99.90;;;;;;4933219;29;20059;-68
2022/09/30 00:08:35;;;;;;;12.77;8.10;;;8.50;99.90;;;;;;4942144;28;20051;-68
2022/09/30 00:11:08;;;;;;;8.18;7.00;;;8.60;99.90;;;;;;4917232;29;20842;-68
2022/09/30 00:13:36;;;;;;;10.07;7.40;;;8.60;99.90;;;;;;4949535;28;20457;-68
2022/09/30 00:16:01;;;;;;;8.95;6.50;;;8.50;99.90;;;;;;4931814;29;20055;-69
2022/09/30 00:18:27;;;;;;;9.75;6.22;;;8.50;99.90;;;;;;4932711;29;20110;-68
2022/09/30 00:20:53;;;;;;;7.97;6.95;;;8.50;99.90;;;;;;4948631;28;20051;-68
2022/09/30 00:23:22;;;;;;;8.07;6.50;;;8.50;99.90;;;;;;4945820;28;20075;-68
2022/09/30 00:25:48;;;;;;;8.60;7.07;;;8.50;99.90;;;;;;4942284;28;20061;-68
2022/09/30 00:28:14;;;;;;;8.38;6.57;;;8.40;99.90;;;;;;4948760;28;20055;-68
2022/09/30 00:30:40;;;;;;;9.02;6.72;;;8.40;99.90;;;;;;4932768;29;20048;-68
2022/09/30 00:33:06;;;;;;;10.65;6.85;;;8.40;99.90;;;;;;4927118;29;20074;-69
2022/09/30 00:35:32;;;;;;;10.65;6.95;;;8.40;99.90;;;;;;4916967;29;20146;-68
2022/09/30 00:37:58;;;;;;;9.40;6.65;;;8.40;99.90;;;;;;4917008;29;20039;-68
2022/09/30 00:40:25;;;;;;;8.93;6.72;;;8.40;99.90;;;;;;4908503;29;20050;-68
2022/09/30 00:42:51;;;;;;;8.18;6.47;;;8.30;99.90;;;;;;4932381;29;20130;-69
2022/09/30 00:45:17;;;;;;;13.52;6.07;;;8.40;99.90;;;;;;4917090;29;20119;-68
2022/09/30 00:47:55;;;;;;;9.05;5.90;;;8.30;99.90;;;;;;4948638;29;20504;-68
2022/09/30 00:50:36;;;;;;;8.45;6.20;;;8.30;99.90;;;;;;4930439;29;20055;-68
2022/09/30 00:53:28;;;;;;;9.73;6.10;;;8.30;99.90;;;;;;4933211;29;20055;-68
2022/09/30 00:56:10;;;;;;;12.82;7.10;;;8.30;99.90;;;;;;4950482;28;20450;-67
2022/09/30 00:58:41;;;;;;;9.98;6.88;;;8.20;99.90;;;;;;4941763;28;20147;-67
2022/09/30 01:01:08;;;;;;;10.25;6.50;;;8.20;99.90;;;;;;4933198;29;20066;-68
2022/09/30 01:03:40;;;;;;;8.68;6.82;;;8.20;99.90;;;;;;4927217;29;20057;-67
2022/09/30 01:06:06;;;;;;;10.75;6.47;;;8.10;99.90;;;;;;4932621;29;20760;-68
2022/09/30 01:08:34;;;;;;;7.15;6.18;;;8.20;99.90;;;;;;4928001;29;20060;-67
2022/09/30 01:11:00;;;;;;;12.45;7.00;;;8.20;99.90;;;;;;4897508;29;20189;-67
2022/09/30 01:13:26;;;;;;;10.45;6.63;;;8.20;99.90;;;;;;4930990;29;20127;-67
2022/09/30 01:16:16;;;;;;;10.60;6.35;;;8.20;99.90;;;;;;4916174;29;20528;-67
2022/09/30 01:19:30;;;;;;;7.22;6.05;;;8.20;99.90;;;;;;4928042;29;20138;-67
2022/09/30 01:22:26;;;;;;;8.63;6.82;;;8.20;99.90;;;;;;4929469;29;20054;-68
2022/09/30 01:25:32;;;;;;;6.28;5.32;;;8.20;99.90;;;;;;4933043;29;20066;-67
2022/09/30 01:28:22;;;;;;;9.05;6.38;;;8.20;99.90;;;;;;4907456;29;20445;-67
2022/09/30 01:31:00;;;;;;;8.13;6.70;;;8.20;99.90;;;;;;4932322;29;20590;-67
2022/09/30 01:33:41;;;;;;;8.35;6.65;;;8.20;99.90;;;;;;4932716;29;20571;-68
2022/09/30 01:36:13;;;;;;;10.30;6.38;;;8.20;99.90;;;;;;4924157;29;20051;-68
2022/09/30 01:38:59;;;;;;;7.13;5.82;;;8.20;99.90;;;;;;4944683;28;20043;-68
2022/09/30 01:41:41;;;;;;;7.80;6.50;;;8.20;99.90;;;;;;4916331;29;20611;-68
2022/09/30 01:44:15;;;;;;;7.25;5.85;;;8.20;99.90;;;;;;4947521;28;20174;-68
2022/09/30 01:46:47;;;;;;;8.30;6.60;;;8.20;99.90;;;;;;4932327;29;20055;-68
2022/09/30 01:49:16;;;;;;;9.10;5.95;;;8.20;99.90;;;;;;4947265;28;20070;-68
2022/09/30 01:51:52;;;;;;;10.20;6.35;;;8.20;99.90;;;;;;4930106;29;20043;-68
2022/09/30 01:54:19;;;;;;;7.88;6.68;;;8.10;99.90;;;;;;4930519;29;20493;-68
2022/09/30 01:56:48;;;;;;;9.00;6.22;;;8.10;99.90;;;;;;4915207;29;20536;-68
2022/09/30 01:59:27;;;;;;;6.55;5.63;;;8.10;99.90;;;;;;4931244;29;20055;-69
2022/09/30 02:02:12;;;;;;;9.10;6.55;;;8.10;99.90;;;;;;4928981;29;20055;-68
2022/09/30 02:04:40;;;;;;;9.05;6.32;;;8.10;99.90;;;;;;4930172;29;20241;-69
2022/09/30 02:07:13;;;;;;;7.50;6.03;;;8.10;99.90;;;;;;4947439;28;20065;-68
2022/09/30 02:10:01;;;;;;;11.13;6.07;;;8.10;99.90;;;;;;4942920;28;20052;-68
2022/09/30 02:12:30;;;;;;;7.07;5.75;;;8.10;99.90;;;;;;4895533;29;20071;-68
2022/09/30 02:15:02;;;;;;;7.95;5.75;;;8.10;99.90;;;;;;4925031;29;20410;-68
2022/09/30 02:17:41;;;;;;;6.40;5.15;;;8.10;99.90;;;;;;4899343;29;20039;-67
2022/09/30 02:20:26;;;;;;;9.65;6.30;;;8.10;99.90;;;;;;4915184;29;20078;-68
2022/09/30 02:23:01;;;;;;;7.25;6.05;;;8.10;99.90;;;;;;4915239;29;20043;-67
2022/09/30 02:25:38;;;;;;;6.53;5.60;;;8.10;99.90;;;;;;4930996;29;20114;-68
2022/09/30 02:28:07;;;;;;;8.95;6.05;;;8.10;99.90;;;;;;4914140;29;20058;-67
2022/09/30 02:30:35;;;;;;;8.25;6.05;;;8.10;99.90;;;;;;4924635;29;20063;-68
2022/09/30 02:33:03;;;;;;;6.65;5.30;;;8.10;99.90;;;;;;4910897;29;20790;-68
2022/09/30 02:35:39;;;;;;;;;;;8.10;99.90;;;;;;4947377;28;20103;-68
2022/09/30 02:38:13;;;;;;;8.02;6.35;;;8.10;99.90;;;;;;4942819;29;19915;-68
2022/09/30 02:40:51;;;;;;;8.75;5.95;;;8.00;99.90;;;;;;4946569;28;20043;-67
2022/09/30 02:43:18;;;;;;;7.93;6.32;;;8.00;99.90;;;;;;4927436;29;20130;-67
2022/09/30 02:46:07;;;;;;;7.80;6.10;;;7.90;99.90;;;;;;4930762;29;20048;-67
2022/09/30 02:48:57;;;;;;;8.07;6.05;;;7.90;99.90;;;;;;4925859;29;20055;-68
2022/09/30 03:08:32;;;;;;;8.70;5.88;;;7.90;99.90;;;;;;4927415;29;20414;-68
2022/09/30 03:10:58;;;;;;;7.40;5.72;;;7.90;99.90;;;;;;4928552;29;20087;-68
2022/09/30 03:13:37;;;;;;;8.65;6.55;;;7.80;99.90;;;;;;4930632;29;20082;-68
2022/09/30 03:16:15;;;;;;;8.75;5.43;;;7.70;99.90;;;;;;4919216;29;20043;-69
2022/09/30 03:19:10;;;;;;;8.05;5.88;;;7.70;99.90;;;;;;4933917;29;20051;-68
2022/09/30 03:22:05;;;;;;;7.07;5.97;;;7.60;99.90;;;;;;4927857;29;20052;-69
2022/09/30 03:24:37;;;;;;;7.10;5.68;;;7.60;99.90;;;;;;4917713;29;20048;-68
2022/09/30 03:27:06;;;;;;;7.53;6.25;;;7.60;99.90;;;;;;4934601;29;20123;-68
2022/09/30 03:29:39;;;;;;;7.50;5.43;;;7.60;99.90;;;;;;4948071;28;20077;-68
2022/09/30 03:32:31;;;;;;;7.95;5.88;;;7.60;99.90;;;;;;4933814;29;20053;-68
2022/09/30 03:35:25;;;;;;;7.07;5.50;;;7.50;99.90;;;;;;4930863;29;20058;-68
2022/09/30 03:38:07;;;;;;;7.57;5.80;;;7.50;99.90;;;;;;4928854;29;20603;-68
2022/09/30 03:40:46;;;;;;;7.05;5.72;;;7.50;99.90;;;;;;4950415;28;20051;-68
2022/09/30 03:43:42;;;;;;;8.15;6.45;;;7.50;99.90;;;;;;4928253;29;20130;-68
2022/09/30 03:46:44;;;;;;;7.07;6.13;;;7.50;99.90;;;;;;4922203;29;20058;-68
2022/09/30 03:49:14;;;;;;;9.82;6.72;;;7.40;99.90;;;;;;4921469;29;20060;-68
2022/09/30 03:51:40;;;;;;;9.98;6.68;;;7.40;99.90;;;;;;4933466;29;20517;-63
2022/09/30 03:54:08;;;;;;;7.90;6.78;;;7.40;99.90;;;;;;4942727;29;20043;-62
2022/09/30 03:56:36;;;;;;;9.25;7.03;;;7.40;99.90;;;;;;4945059;28;20048;-62
2022/09/30 03:59:01;;;;;;;9.95;7.03;;;7.30;99.90;;;;;;4917739;29;20122;-63
2022/09/30 04:01:28;;;;;;;7.93;6.60;;;7.30;99.90;;;;;;4928837;29;20457;-62
2022/09/30 04:03:54;;;;;;;9.40;5.68;;;7.30;99.90;;;;;;4932287;29;20063;-62
2022/09/30 04:06:21;;;;;;;9.52;7.18;;;7.30;99.90;;;;;;4948896;28;20354;-62
2022/09/30 04:08:47;;;;;;;8.65;7.22;;;7.30;99.90;;;;;;4931894;29;20059;-62
2022/09/30 04:11:13;;;;;;;9.90;6.80;;;7.30;99.90;;;;;;4949050;28;20077;-62
2022/09/30 04:13:39;;;;;;;8.93;6.70;;;7.30;99.90;;;;;;4909964;29;20477;-63
2022/09/30 04:16:06;;;;;;;11.63;8.23;;;7.20;99.90;;;;;;4917650;29;20059;-63
2022/09/30 04:18:36;;;;;;;11.73;7.38;;;7.20;99.90;;;;;;4944941;28;20048;-62
2022/09/30 04:21:05;;;;;;;9.52;6.82;;;7.20;99.90;;;;;;4933350;29;20047;-63
2022/09/30 04:23:33;;;;;;;10.80;7.57;;;7.20;99.90;;;;;;4921782;29;20059;-62
2022/09/30 04:26:00;;;;;;;9.25;7.07;;;7.20;99.90;;;;;;4931217;29;20059;-62
2022/09/30 04:28:26;;;;;;;12.30;7.75;;;7.20;99.90;;;;;;4932607;29;20343;-62
2022/09/30 04:30:52;;;;;;;10.50;7.18;;;7.10;99.90;;;;;;4936245;29;20056;-62
2022/09/30 04:33:17;;;;;;;10.40;7.90;;;7.10;99.90;;;;;;4930906;29;20054;-62
2022/09/30 04:35:43;;;;;;;10.02;7.13;;;7.10;99.90;;;;;;4927530;29;20138;-62
2022/09/30 04:38:12;;;;;;;10.98;7.45;;;7.10;99.90;;;;;;4921976;29;20667;-62
2022/09/30 04:40:38;;;;;;;9.82;7.55;;;7.10;99.90;;;;;;4931856;29;20582;-63
2022/09/30 04:43:05;;;;;;;10.43;7.38;;;7.10;99.90;;;;;;4943835;28;20051;-62
2022/09/30 04:45:30;;;;;;;9.55;7.47;;;7.10;99.90;;;;;;4916595;29;20070;-65
2022/09/30 04:47:57;;;;;;;9.68;7.80;;;7.10;99.90;;;;;;4921137;29;20533;-66
2022/09/30 04:50:23;;;;;;;10.60;8.02;;;7.10;99.90;;;;;;4922527;29;20648;-65
2022/09/30 04:52:48;;;;;;;13.23;8.52;;;7.00;99.90;;;;;;4872063;29;20048;-67
2022/09/30 04:55:14;;;;;;;10.20;7.72;;;7.00;99.90;;;;;;4933042;29;20477;-65
2022/09/30 04:57:43;;;;;;;8.30;7.10;;;7.10;99.90;;;;;;4932480;29;20050;-66
2022/09/30 05:00:10;;;;;;;9.05;7.18;;;7.10;99.90;;;;;;4929012;29;20113;-66
2022/09/30 05:02:35;;;;;;;11.38;7.88;;;7.10;99.90;;;;;;4932329;29;20117;-66
2022/09/30 05:05:01;;;;;;;9.15;7.25;;;7.10;99.90;;;;;;4927077;29;20055;-66
2022/09/30 05:07:29;;;;;;;11.77;7.85;;;7.10;99.90;;;;;;4894308;29;20191;-65
2022/09/30 05:09:55;;;;;;;11.02;7.57;;;7.10;99.90;;;;;;4931853;29;20047;-66
2022/09/30 05:12:21;;;;;;;11.48;7.63;;;7.00;99.90;;;;;;4903106;29;20071;-66
2022/09/30 05:14:47;;;;;;;10.20;7.63;;;7.10;99.90;;;;;;4924268;29;20082;-66
2022/09/30 05:17:13;;;;;;;10.43;7.32;;;7.10;99.90;;;;;;4921734;29;20091;-66
2022/09/30 05:19:39;;;;;;;12.63;8.70;;;7.10;99.90;;;;;;4943268;29;20632;-67
2022/09/30 05:22:05;;;;;;;9.50;7.63;;;7.20;99.90;;;;;;4925034;29;20047;-66
2022/09/30 05:24:30;;;;;;;7.97;6.63;;;7.20;99.90;;;;;;4915239;29;20059;-66
2022/09/30 05:26:56;;;;;;;9.40;7.25;;;7.20;99.90;;;;;;4930936;29;20390;-66
2022/09/30 05:29:24;;;;;;;10.52;8.38;;;7.20;99.90;;;;;;4925255;29;20051;-66
2022/09/30 05:31:50;;;;;;;;;;;7.20;99.90;;;;;;4921723;29;20110;-67
2022/09/30 05:34:16;;;;;;;7.55;6.72;;;7.20;99.90;;;;;;4922072;29;19942;-67
2022/09/30 05:36:43;;;;;;;10.88;8.25;;;7.10;99.90;;;;;;4927167;29;20086;-67
2022/09/30 05:39:09;;;;;;;11.15;8.55;;;7.20;99.90;;;;;;4897399;29;20443;-66
2022/09/30 05:41:35;;;;;;;11.98;8.82;;;7.10;99.90;;;;;;4913219;29;20122;-65
2022/09/30 05:44:01;;;;;;;11.90;8.52;;;7.10;99.90;;;;;;4908525;29;20067;-66
2022/09/30 05:46:27;;;;;;;10.02;8.80;;;7.00;99.90;;;;;;4938667;29;20150;-66
2022/09/30 05:48:56;;;;;;;11.98;7.75;;;7.00;99.90;;;;;;4916076;29;20055;-65
2022/09/30 05:51:22;;;;;;;14.52;8.43;;;6.90;99.90;;;;;;4919409;29;20048;-66
2022/09/30 05:53:47;;;;;;;10.57;7.88;;;6.90;99.90;;;;;;4914976;29;20090;-66
2022/09/30 05:56:13;;;;;;;12.32;7.75;;;6.90;99.90;;;;;;4908103;29;20051;-66
2022/09/30 05:58:40;;;;;;;9.75;7.80;;;7.00;99.90;;;;;;4893527;29;20115;-66
2022/09/30 06:01:08;;;;;;;9.27;7.63;;;7.00;99.90;;;;;;4912139;29;20100;-65
2022/09/30 06:03:34;;;;;;;10.33;8.07;;;7.00;99.90;;;;;;4928118;29;20055;-65
2022/09/30 06:06:01;;;;;;;12.27;7.68;;;6.90;99.90;;;;;;4926422;29;20591;-66
2022/09/30 06:08:26;;;;;;;11.77;7.95;;;6.90;99.90;;;;;;4930338;29;20083;-66
2022/09/30 06:10:52;;;;;;;9.45;7.60;;;6.90;99.90;;;;;;4930997;29;20411;-66
2022/09/30 06:13:19;;;;;;;11.32;7.85;;;7.00;99.90;;;;;;4935869;29;20381;-66
2022/09/30 06:15:58;;;;;;;11.93;8.75;;;7.00;99.90;;;;;;4913905;29;20142;-65
2022/09/30 06:18:29;;;;;;;13.23;8.68;;;7.00;99.90;;;;;;4952380;28;20470;-66
2022/09/30 06:20:57;;;;;;;10.52;7.82;;;7.00;99.90;;;;;;4936571;29;20347;-66
2022/09/30 06:23:25;;;;;;;9.57;7.67;;;7.00;99.90;;;;;;4908867;29;20139;-67
2022/09/30 06:25:55;;;;;;;12.50;8.40;;;7.10;99.90;;;;;;4908671;29;20043;-66
2022/09/30 06:28:22;;;;;;;10.23;8.20;;;7.10;99.90;;;;;;4918460;29;20111;-65
2022/09/30 06:30:48;;;;;;;9.57;7.70;;;7.10;99.90;;;;;;4939943;29;20066;-65
2022/09/30 06:33:14;;;;;;;10.35;8.27;;;7.20;99.90;;;;;;4912802;29;20553;-66
2022/09/30 06:35:41;;;;;;;10.23;7.85;;;7.20;99.90;;;;;;4927925;29;20043;-65
2022/09/30 06:38:10;;;;;;;12.60;9.15;;;7.20;99.90;;;;;;4935597;29;20055;-65
2022/09/30 06:40:36;;;;;;;8.88;7.70;;;7.30;99.90;;;;;;4906071;29;20441;-64
2022/09/30 06:43:03;;;;;;;12.50;8.18;;;7.40;99.90;;;;;;4919301;29;20060;-65
2022/09/30 06:45:31;;;;;;;11.30;7.65;;;7.40;99.90;;;;;;4929464;29;20103;-65
2022/09/30 06:48:17;;;;;;;12.43;8.90;;;7.50;99.90;;;;;;4960763;28;20056;-64
2022/09/30 06:50:43;;;;;;;13.52;8.15;;;7.50;99.90;;;;;;4924634;29;20043;-66
2022/09/30 06:53:10;;;;;;;10.30;8.10;;;7.60;99.90;;;;;;4926193;29;20043;-64
2022/09/30 06:55:38;;;;;;;12.95;7.88;;;7.60;99.90;;;;;;4924618;29;20047;-65
2022/09/30 06:58:10;;;;;;;9.00;7.10;;;7.70;99.90;;;;;;4921224;29;20617;-65
2022/09/30 07:00:36;;;;;;;10.00;7.38;;;7.80;99.90;;;;;;4928698;29;20115;-66
2022/09/30 07:03:04;;;;;;;12.32;8.50;;;7.80;99.90;;;;;;4916497;29;20044;-65
2022/09/30 07:05:31;;;;;;;15.23;9.63;;;7.90;99.90;;;;;;4942601;28;20130;-65
2022/09/30 07:07:58;;;;;;;15.23;10.00;;;8.00;99.90;;;;;;4934052;29;20374;-65
2022/09/30 07:10:23;;;;;;;14.52;8.95;;;8.00;99.90;;;;;;4927740;29;20486;-65
2022/09/30 07:12:50;;;;;;;11.50;8.18;;;8.00;99.90;;;;;;4933153;29;20063;-65
2022/09/30 07:15:18;;;;;;;9.27;7.80;;;8.10;99.90;;;;;;4926685;29;20083;-64
2022/09/30 07:17:43;;;;;;;9.43;8.07;;;8.20;99.90;;;;;;4912988;29;20050;-65
2022/09/30 07:20:09;;;;;;;9.45;7.60;;;8.20;99.90;;;;;;4921870;29;20052;-65
2022/09/30 07:22:35;;;;;;;8.70;7.43;;;8.30;99.90;;;;;;4889589;29;20377;-64
2022/09/30 07:25:05;;;;;;;14.43;7.90;;;8.30;99.90;;;;;;4926915;29;20127;-64
2022/09/30 07:27:33;;;;;;;13.68;8.65;;;8.40;99.90;;;;;;4934021;29;20062;-65
2022/09/30 07:30:01;;;;;;;8.90;7.55;;;8.50;99.90;;;;;;4946941;29;20052;-65
2022/09/30 07:32:27;;;;;;;13.60;8.40;;;8.50;99.90;;;;;;4912516;29;20054;-66
2022/09/30 07:34:52;;;;;;;11.57;7.88;;;8.60;99.90;;;;;;4943267;28;20047;-65
2022/09/30 07:37:18;;;;;;;9.55;7.60;;;8.70;99.90;;;;;;4949561;29;20054;-65
2022/09/30 07:39:45;;;;;;;10.80;8.45;;;8.80;99.90;;;;;;4908689;29;20063;-65
2022/09/30 07:42:13;;;;;;;9.05;7.53;;;8.90;99.90;;;;;;4927126;29;20055;-65
2022/09/30 07:44:43;;;;;;;10.10;7.13;;;8.90;99.90;;;;;;4911430;29;20070;-65
2022/09/30 07:47:13;;;;;;;10.38;6.85;;;9.00;99.90;;;;;;4917526;29;20044;-64
2022/09/30 07:49:41;;;;;;;9.70;7.15;;;9.10;99.90;;;;;;4943421;28;20052;-64
2022/09/30 07:52:07;;;;;;;7.85;6.53;;;9.20;99.90;;;;;;4927141;29;20484;-65
2022/09/30 07:54:33;;;;;;;9.40;7.13;;;9.20;99.90;;;;;;4923038;29;20150;-65
2022/09/30 07:57:00;;;;;;;8.35;7.15;;;9.30;99.90;;;;;;4922430;29;20058;-64
2022/09/30 07:59:27;;;;;;;7.63;6.65;;;9.40;99.90;;;;;;4927574;29;20064;-65
2022/09/30 08:01:53;;;;;;;10.88;6.72;;;9.50;99.90;;;;;;4917385;29;20056;-65
2022/09/30 08:04:19;;;;;;;10.15;7.47;;;9.50;99.90;;;;;;4904117;29;20058;-65
2022/09/30 08:06:46;;;;;;;14.15;7.15;;;9.60;99.90;;;;;;4930012;29;20060;-65
2022/09/30 08:09:14;;;;;;;10.10;7.63;;;9.70;99.90;;;;;;4924206;29;20410;-65
2022/09/30 08:11:41;;;;;;;11.60;7.93;;;9.80;99.90;;;;;;4914621;29;20283;-65
2022/09/30 08:14:07;;;;;;;13.80;7.32;;;9.90;99.70;;;;;;4886136;29;20048;-65
2022/09/30 08:16:33;;;;;;;10.20;7.20;;;9.90;99.60;;;;;;4912354;29;20055;-65
2022/09/30 08:19:00;;;;;;;9.18;6.65;;;10.00;99.30;;;;;;4926106;29;20055;-65
2022/09/30 08:21:28;;;;;;;12.48;7.60;;;10.10;99.50;;;;;;4894809;29;20496;-66
2022/09/30 08:23:54;;;;;;;10.65;7.68;;;10.10;99.50;;;;;;4915734;29;20062;-65
2022/09/30 08:26:19;;;;;;;13.02;7.75;;;10.20;99.50;;;;;;4916009;29;20059;-66
2022/09/30 08:28:48;;;;;;;12.60;7.70;;;10.30;99.20;;;;;;4931562;29;20153;-65
2022/09/30 08:31:15;;;;;;;14.75;8.63;;;10.40;99.20;;;;;;4933403;29;20047;-66
2022/09/30 08:33:42;;;;;;;10.43;7.57;;;10.50;99.40;;;;;;4925228;29;20055;-66
2022/09/30 08:36:09;;;;;;;10.15;7.80;;;10.50;99.00;;;;;;4926663;29;20059;-65
2022/09/30 08:38:35;;;;;;;9.88;7.50;;;10.60;98.90;;;;;;4900054;29;20044;-65
2022/09/30 08:41:10;;;;;;;11.27;7.22;;;10.60;98.60;;;;;;4899307;29;20058;-65
2022/09/30 08:43:50;;;;;;;10.65;6.95;;;10.70;98.40;;;;;;4933393;29;20063;-66
2022/09/30 08:46:49;;;;;;;9.88;7.45;;;10.80;98.50;;;;;;4946266;28;20054;-66
2022/09/30 08:49:30;;;;;;;10.15;7.35;;;10.90;98.50;;;;;;4929322;29;20098;-64
2022/09/30 08:51:55;;;;;;;13.10;7.00;;;11.00;98.30;;;;;;4927017;29;20054;-65
2022/09/30 08:54:23;;;;;;;9.95;7.43;;;11.10;98.20;;;;;;4914266;29;20441;-65
2022/09/30 08:56:49;;;;;;;10.70;7.65;;;11.10;97.80;;;;;;4943289;28;20043;-65
2022/09/30 08:59:29;;;;;;;12.40;7.50;;;11.20;97.90;;;;;;4932197;29;20081;-66
2022/09/30 09:02:16;;;;;;;11.40;7.75;;;11.30;98.30;;;;;;4922416;29;20043;-66
2022/09/30 09:04:41;;;;;;;11.93;7.47;;;11.40;98.30;;;;;;4932553;29;20531;-64
2022/09/30 09:07:14;;;;;;;9.88;8.15;;;11.50;98.10;;;;;;4938729;28;20059;-65
2022/09/30 09:10:06;;;;;;;14.27;8.70;;;11.60;97.40;;;;;;4930833;29;20481;-66
2022/09/30 09:12:53;;;;;;;12.07;8.35;;;11.60;97.40;;;;;;4913469;29;20126;-66
2022/09/30 09:15:31;;;;;;;11.80;8.60;;;11.80;96.60;;;;;;4926775;29;20040;-65
2022/09/30 09:18:22;;;;;;;12.93;8.95;;;11.90;96.50;;;;;;4915851;29;20054;-66
2022/09/30 09:20:54;;;;;;;12.63;8.52;;;12.10;96.40;;;;;;4943010;28;20052;-65
2022/09/30 09:23:20;;;;;;;11.60;8.75;;;12.20;95.40;;;;;;4915331;29;20047;-66
2022/09/30 09:25:51;;;;;;;11.60;8.90;;;12.30;95.80;;;;;;4919440;29;20054;-66
2022/09/30 09:28:39;;;;;;;12.32;8.52;;;12.40;95.60;;;;;;4926714;29;20115;-66
2022/09/30 09:31:12;;;;;;;12.98;8.73;;;12.50;95.60;;;;;;4930298;29;20119;-66
2022/09/30 09:33:46;;;;;;;9.32;8.30;;;12.60;95.00;;;;;;5167483;27;20782;-65
2022/09/30 09:36:14;;;;;;;13.95;7.95;;;12.70;95.40;;;;;;5168535;27;20046;-66
2022/09/30 09:38:52;;;;;;;11.57;7.95;;;12.90;95.00;;;;;;5168883;27;20073;-65
2022/09/30 09:41:26;;;;;;;10.77;7.97;;;13.00;94.10;;;;;;5168695;27;20043;-67
2022/09/30 09:44:29;;;;;;;10.88;7.55;;;13.10;94.20;;;;;;5149575;27;20041;-66
2022/09/30 09:47:12;;;;;;;9.27;7.15;;;13.30;93.30;;;;;;5132193;27;20042;-65
2022/09/30 09:50:00;;;;;;;11.98;7.38;;;13.30;93.40;;;;;;5132302;27;20042;-65
2022/09/30 09:52:43;;;;;;;12.13;7.67;;;13.60;93.40;;;;;;5167956;27;20054;-65
2022/09/30 09:55:10;;;;;;;10.35;6.43;;;13.80;92.80;;;;;;5164808;27;20283;-65
2022/09/30 09:57:36;;;;;;;8.90;5.82;;;13.90;92.10;;;;;;5132883;27;20046;-65
2022/09/30 10:03:20;;;;;;;9.32;5.88;;;14.00;92.30;;;;;;5134126;27;20061;-65
2022/09/30 10:06:08;;;;;;;10.65;5.90;;;14.20;91.40;;;;;;5163610;27;20046;-65
2022/09/30 10:08:35;;;;;;;8.52;5.70;;;14.30;90.80;;;;;;5149848;27;20046;-65
2022/09/30 10:11:17;;;;;;;10.97;6.43;;;14.50;91.10;;;;;;5150277;27;20042;-65
2022/09/30 10:13:43;;;;;;;8.90;6.60;;;14.60;90.90;;;;;;5092571;27;20471;-65
2022/09/30 10:16:34;;;;;;;11.05;7.80;;;14.70;90.10;;;;;;5150236;27;20359;-65
2022/09/30 10:19:00;;;;;;;16.77;9.30;;;14.80;90.40;;;;;;5146831;27;20046;-65
2022/09/30 10:21:27;;;;;;;17.73;9.18;;;14.90;87.10;;;;;;5146120;27;20050;-66
2022/09/30 10:23:52;;;;;;;17.02;9.05;;;14.90;87.30;;;;;;5113958;27;20141;-64
2022/09/30 10:26:19;;;;;;;17.27;9.30;;;15.10;89.10;;;;;;5089211;27;20129;-65
2022/09/30 10:28:50;;;;;;;17.85;9.27;;;15.30;88.80;;;;;;5149576;27;20039;-65
2022/09/30 10:31:35;;;;;;;19.58;9.68;;;15.50;88.60;;;;;;5167344;27;20066;-65
2022/09/30 10:34:23;;;;;;;19.27;9.95;;;15.60;90.00;;;;;;5161619;27;20133;-65
2022/09/30 10:36:48;;;;;;;19.65;9.57;;;15.40;85.70;;;;;;5144093;27;20042;-66
2022/09/30 10:39:29;;;;;;;21.13;9.73;;;15.10;86.70;;;;;;5132333;27;20044;-66
2022/09/30 10:42:08;;;;;;;21.50;10.07;;;14.90;88.80;;;;;;5164235;27;20199;-65
2022/09/30 10:44:57;;;;;;;19.60;9.27;;;14.90;88.60;;;;;;5123344;27;20471;-66
2022/09/30 10:47:27;;;;;;;13.82;8.18;;;14.80;89.20;;;;;;5137215;27;20046;-65
2022/09/30 10:50:07;;;;;;;14.50;7.82;;;14.70;87.30;;;;;;5134374;27;20054;-65
2022/09/30 10:53:02;;;;;;;10.90;7.03;;;15.30;83.30;;;;;;5084728;27;20135;-65
2022/09/30 10:55:42;;;;;;;11.90;7.43;;;18.20;69.40;;;;;;5091147;27;20371;-65
2022/09/30 10:58:45;;;;;;;11.93;7.40;;;16.70;76.30;;;;;;5133716;27;20054;-65
2022/09/30 11:01:14;;;;;;;13.90;6.90;;;15.70;78.50;;;;;;5082964;27;20047;-66
2022/09/30 11:04:04;;;;;;;10.75;6.22;;;18.50;74.50;;;;;;5134049;27;20039;-67
2022/09/30 11:06:36;;;;;;;11.02;5.68;;;19.70;64.20;;;;;;5133053;27;20049;-66
2022/09/30 11:09:13;;;;;;;11.02;5.97;;;21.60;57.80;;;;;;5116539;27;20070;-66
2022/09/30 11:11:42;;;;;;;11.63;5.55;;;23.50;55.80;;;;;;5118686;27;20046;-67
2022/09/30 11:14:46;;;;;;;9.20;5.55;;;23.20;49.30;;;;;;5114986;27;20438;-67
2022/09/30 11:17:32;;;;;;;9.20;6.32;;;24.40;46.80;;;;;;5147710;27;20057;-67
2022/09/30 11:20:29;;;;;;;11.75;7.25;;;25.10;47.40;;;;;;5131282;27;20043;-68
2022/09/30 11:23:11;;;;;;;15.38;8.82;;;25.30;42.40;;;;;;5136262;27;20074;-70
2022/09/30 11:25:43;;;;;;;14.35;9.50;;;25.10;44.50;;;;;;5118282;27;20087;-71
2022/09/30 11:28:46;;;;;;;10.13;5.93;;;24.00;43.10;;;;;;5130258;27;20164;-70
2022/09/30 11:31:35;;;;;;;11.95;6.10;;;24.40;44.10;;;;;;5134374;27;20042;-70
2022/09/30 11:34:36;;;;;;;7.60;4.95;;;25.20;43.20;;;;;;5082054;27;20368;-71
2022/09/30 11:37:20;;;;;;;10.90;4.90;;;25.10;41.20;;;;;;5133690;27;20080;-70
2022/09/30 11:40:11;;;;;;;11.10;6.22;;;23.50;44.70;;;;;;5152816;27;20049;-70
2022/09/30 11:42:45;;;;;;;7.05;5.15;;;22.60;50.30;;;;;;5134346;27;20144;-69
2022/09/30 11:45:30;;;;;;;10.70;5.75;;;21.70;54.30;;;;;;5128581;27;20046;-69
2022/09/30 11:48:35;;;;;;;6.88;5.07;;;19.80;57.20;;;;;;5133307;27;20042;-70
2022/09/30 11:51:11;;;;;;;7.78;4.70;;;19.50;58.80;;;;;;5108847;27;20115;-69
2022/09/30 11:54:29;;;;;;;8.27;5.35;;;19.40;62.20;;;;;;5144380;27;20051;-68
2022/09/30 11:57:01;;;;;;;7.82;4.93;;;18.80;61.30;;;;;;5091835;27;20045;-68
2022/09/30 11:59:47;;;;;;;5.32;4.35;;;18.60;62.80;;;;;;5135979;27;20047;-69
2022/09/30 12:02:18;;;;;;;6.88;4.60;;;18.60;62.90;;;;;;5118293;27;20039;-69
2022/09/30 12:04:44;;;;;;;5.47;3.45;;;18.10;64.80;;;;;;5129448;27;20046;-69
2022/09/30 12:07:20;;;;;;;6.88;4.13;;;19.10;61.20;;;;;;5114593;27;20039;-69
2022/09/30 12:10:00;;;;;;;8.10;4.28;;;19.30;59.80;;;;;;5099264;27;20142;-66
2022/09/30 12:12:26;;;;;;;7.30;3.50;;;20.10;54.80;;;;;;5115071;27;20057;-66
2022/09/30 12:15:04;;;;;;;8.40;4.20;;;21.00;51.80;;;;;;5074442;27;20047;-67
2022/09/30 12:17:35;;;;;;;8.00;4.15;;;20.40;53.50;;;;;;5081634;27;20329;-70
2022/09/30 12:20:09;;;;;;;6.40;4.28;;;19.50;57.10;;;;;;5129509;27;20042;-67
2022/09/30 12:22:40;;;;;;;7.50;4.28;;;19.40;60.00;;;;;;5115493;27;20428;-68
2022/09/30 12:25:17;;;;;;;9.95;4.28;;;19.40;58.60;;;;;;5088238;27;20578;-69
2022/09/30 12:27:46;;;;;;;6.70;3.60;;;19.00;59.80;;;;;;5110789;27;20107;-67
2022/09/30 12:30:17;;;;;;;6.35;3.58;;;18.90;60.00;;;;;;5112216;27;20047;-68
2022/09/30 12:33:01;;;;;;;5.88;3.10;;;19.60;58.60;;;;;;5133310;27;20061;-68
2022/09/30 12:35:29;;;;;;;5.15;2.70;;;21.20;55.00;;;;;;5127579;27;20046;-68
2022/09/30 12:38:04;;;;;;;5.55;2.40;;;21.80;50.50;;;;;;5151198;27;20034;-69
2022/09/30 12:40:55;;;;;;;4.15;2.42;;;22.00;50.20;;;;;;5148428;27;20479;-68
2022/09/30 12:43:27;;;;;;;4.90;2.28;;;21.80;49.00;;;;;;5149469;27;20050;-67
2022/09/30 12:46:02;;;;;;;4.88;1.98;;;22.10;49.00;;;;;;5132736;27;20491;-68
2022/09/30 12:48:58;;;;;;;5.30;1.95;;;21.70;49.30;;;;;;5132832;27;20046;-66
2022/09/30 12:51:31;;;;;;;5.47;2.03;;;21.30;49.00;;;;;;5125000;27;20034;-68
2022/09/30 12:54:14;;;;;;;4.68;2.00;;;22.10;49.50;;;;;;5128561;27;20058;-69
2022/09/30 12:56:43;;;;;;;3.20;1.88;;;22.10;48.20;;;;;;5132592;27;20048;-69
2022/09/30 12:59:09;;;;;;;4.28;2.05;;;22.00;49.10;;;;;;5132805;27;20046;-69
2022/09/30 13:01:36;;;;;;;3.30;1.75;;;22.90;46.60;;;;;;5105360;27;20047;-67
2022/09/30 13:04:02;;;;;;;5.38;1.95;;;22.20;46.10;;;;;;5132547;27;20455;-69
2022/09/30 13:06:50;;;;;;;4.60;1.60;;;21.70;48.90;;;;;;5126045;27;20039;-69
2022/09/30 13:09:16;;;;;;;5.68;1.80;;;22.10;45.80;;;;;;5151150;27;20043;-67
2022/09/30 13:12:14;;;;;;;4.68;2.00;;;21.70;47.80;;;;;;5150667;27;20095;-69
2022/09/30 13:14:43;;;;;;;2.95;1.48;;;22.20;47.30;;;;;;5147761;27;20087;-67
2022/09/30 13:17:12;;;;;;;5.38;1.98;;;22.30;45.90;;;;;;5132632;27;20534;-68
2022/09/30 13:19:39;;;;;;;4.32;1.60;;;22.20;46.10;;;;;;5132368;27;20057;-67
2022/09/30 13:22:22;;;;;;;4.97;1.85;;;21.80;46.20;;;;;;5132017;27;20051;-67
2022/09/30 13:25:03;;;;;;;4.95;1.88;;;21.90;46.60;;;;;;5146425;27;20052;-68
2022/09/30 13:27:37;;;;;;;2.90;1.50;;;21.40;48.10;;;;;;5125436;27;20042;-68
2022/09/30 13:30:12;;;;;;;1.95;1.27;;;21.60;47.20;;;;;;5114816;27;20047;-68
2022/09/30 13:32:38;;;;;;;2.85;1.30;;;21.20;49.00;;;;;;5128908;27;20047;-67
2022/09/30 13:35:28;;;;;;;4.43;1.52;;;21.30;49.80;;;;;;5086163;28;20046;-67
2022/09/30 13:38:12;;;;;;;3.03;1.10;;;20.90;49.30;;;;;;5132440;27;20042;-69
2022/09/30 13:40:59;;;;;;;2.67;1.27;;;20.50;50.10;;;;;;5132267;27;20053;-67